THY75P LTFM-LHBP
Flight info
| Callsign | THY75P |
|---|---|
| Flight time | 1h 36m |
| Altitude | 38000 |
| Route | TUDB1G TUDBU Q26 ETUBA DEGET KEZAL KEZA2H |
| Aircraft | B738/M-VGDW/C |
Departure
| Time | 2026-05-08 03:39 |
|---|---|
| Airport | İstanbul Airport (LTFM) |
Arrival
| Time | 2026-05-08 05:15 |
|---|---|
| Airport | Budapest Liszt Ferenc International Airport (LHBP) |
| Time | Latitude | Longitude | Altitude | Speed | Heading |
|---|---|---|---|---|---|
| 2026-05-08 03:37 | 41.29492 | 28.72897 | 223 ft | 0 kts | 287° |
| 2026-05-08 03:37 | 41.29494 | 28.72873 | 224 ft | 6 kts | 273° |
| 2026-05-08 03:37 | 41.29494 | 28.72790 | 226 ft | 11 kts | 268° |
| 2026-05-08 03:37 | 41.29492 | 28.72683 | 227 ft | 12 kts | 269° |
| 2026-05-08 03:38 | 41.29492 | 28.72569 | 224 ft | 13 kts | 270° |
| 2026-05-08 03:38 | 41.29471 | 28.72473 | 229 ft | 10 kts | 218° |
| 2026-05-08 03:38 | 41.29389 | 28.72461 | 227 ft | 26 kts | 179° |
| 2026-05-08 03:38 | 41.28936 | 28.72470 | 244 ft | 102 kts | 179° |
| 2026-05-08 03:39 | 41.28005 | 28.72477 | 324 ft | 159 kts | 181° |
| 2026-05-08 03:39 | 41.26849 | 28.72514 | 1001 ft | 170 kts | 181° |
| 2026-05-08 03:39 | 41.25640 | 28.72554 | 1871 ft | 177 kts | 181° |
| 2026-05-08 03:39 | 41.24354 | 28.72610 | 2549 ft | 193 kts | 182° |
| 2026-05-08 03:40 | 41.22991 | 28.72681 | 3257 ft | 201 kts | 181° |
| 2026-05-08 03:40 | 41.21558 | 28.72729 | 3808 ft | 211 kts | 188° |
| 2026-05-08 03:40 | 41.20097 | 28.72055 | 4021 ft | 238 kts | 215° |
| 2026-05-08 03:40 | 41.18875 | 28.70474 | 4617 ft | 251 kts | 236° |
| 2026-05-08 03:41 | 41.18173 | 28.68346 | 5512 ft | 254 kts | 258° |
| 2026-05-08 03:41 | 41.18020 | 28.65987 | 6387 ft | 260 kts | 268° |
| 2026-05-08 03:41 | 41.18008 | 28.64383 | 6925 ft | 263 kts | 269° |
| 2026-05-08 03:41 | 41.18005 | 28.61102 | 8051 ft | 268 kts | 270° |
| 2026-05-08 03:42 | 41.18163 | 28.59471 | 8590 ft | 271 kts | 286° |
| 2026-05-08 03:42 | 41.19516 | 28.56677 | 9632 ft | 279 kts | 319° |
| 2026-05-08 03:42 | 41.21241 | 28.55479 | 10365 ft | 289 kts | 343° |
| 2026-05-08 03:42 | 41.22621 | 28.55198 | 10540 ft | 307 kts | 355° |
| 2026-05-08 03:43 | 41.24849 | 28.55169 | 10776 ft | 331 kts | 358° |
| 2026-05-08 03:43 | 41.27194 | 28.55185 | 11320 ft | 341 kts | 358° |
| 2026-05-08 03:43 | 41.29584 | 28.55173 | 12074 ft | 345 kts | 357° |
| 2026-05-08 03:43 | 41.31989 | 28.55224 | 12868 ft | 348 kts | 2° |
| 2026-05-08 03:44 | 41.34412 | 28.55575 | 13625 ft | 353 kts | 4° |
| 2026-05-08 03:44 | 41.36844 | 28.55409 | 14274 ft | 352 kts | 341° |
| 2026-05-08 03:44 | 41.38969 | 28.53858 | 14973 ft | 349 kts | 318° |
| 2026-05-08 03:44 | 41.40711 | 28.51658 | 15666 ft | 351 kts | 314° |
| 2026-05-08 03:45 | 41.42456 | 28.49349 | 16301 ft | 356 kts | 314° |
| 2026-05-08 03:45 | 41.44221 | 28.46993 | 16934 ft | 360 kts | 314° |
| 2026-05-08 03:45 | 41.46003 | 28.44622 | 17583 ft | 364 kts | 314° |
| 2026-05-08 03:45 | 41.47808 | 28.42234 | 18247 ft | 367 kts | 314° |
| 2026-05-08 03:46 | 41.49635 | 28.39828 | 18827 ft | 371 kts | 314° |
| 2026-05-08 03:46 | 41.51482 | 28.37402 | 19411 ft | 373 kts | 314° |
| 2026-05-08 03:46 | 41.53345 | 28.34959 | 19983 ft | 376 kts | 314° |
| 2026-05-08 03:46 | 41.55219 | 28.32503 | 20551 ft | 379 kts | 314° |
| 2026-05-08 03:47 | 41.57106 | 28.30029 | 21110 ft | 381 kts | 314° |
| 2026-05-08 03:47 | 41.59004 | 28.27541 | 21664 ft | 384 kts | 314° |
| 2026-05-08 03:47 | 41.60919 | 28.25028 | 22198 ft | 387 kts | 314° |
| 2026-05-08 03:47 | 41.62847 | 28.22495 | 22703 ft | 391 kts | 314° |
| 2026-05-08 03:48 | 41.64795 | 28.19934 | 23199 ft | 394 kts | 314° |
| 2026-05-08 03:48 | 41.66757 | 28.17352 | 23699 ft | 397 kts | 314° |
| 2026-05-08 03:48 | 41.68732 | 28.14751 | 24128 ft | 399 kts | 314° |
| 2026-05-08 03:48 | 41.70712 | 28.12140 | 24590 ft | 400 kts | 314° |
| 2026-05-08 03:49 | 41.72672 | 28.09555 | 25041 ft | 402 kts | 314° |
| 2026-05-08 03:49 | 41.74667 | 28.06920 | 25471 ft | 403 kts | 314° |
| 2026-05-08 03:49 | 41.76669 | 28.04272 | 25897 ft | 405 kts | 314° |
| 2026-05-08 03:49 | 41.78678 | 28.01614 | 26320 ft | 407 kts | 314° |
| 2026-05-08 03:50 | 41.80697 | 27.98939 | 26729 ft | 408 kts | 314° |
| 2026-05-08 03:50 | 41.82725 | 27.96251 | 27128 ft | 410 kts | 314° |
| 2026-05-08 03:50 | 41.84756 | 27.93556 | 27527 ft | 412 kts | 314° |
| 2026-05-08 03:50 | 41.86792 | 27.90851 | 27922 ft | 413 kts | 314° |
| 2026-05-08 03:51 | 41.88837 | 27.88132 | 28307 ft | 415 kts | 314° |
| 2026-05-08 03:51 | 41.90888 | 27.85402 | 28686 ft | 416 kts | 314° |
| 2026-05-08 03:51 | 41.92952 | 27.82652 | 29054 ft | 418 kts | 314° |
| 2026-05-08 03:51 | 41.95017 | 27.79900 | 29420 ft | 419 kts | 314° |
| 2026-05-08 03:52 | 41.97089 | 27.77132 | 29790 ft | 420 kts | 314° |
| 2026-05-08 03:52 | 41.99151 | 27.74342 | 30116 ft | 422 kts | 314° |
| 2026-05-08 03:52 | 42.01219 | 27.71516 | 30394 ft | 423 kts | 313° |
| 2026-05-08 03:52 | 42.03258 | 27.68719 | 30696 ft | 424 kts | 313° |
| 2026-05-08 03:53 | 42.05314 | 27.65894 | 31092 ft | 421 kts | 313° |
| 2026-05-08 03:53 | 42.07355 | 27.63090 | 31621 ft | 416 kts | 313° |
| 2026-05-08 03:53 | 42.09367 | 27.60326 | 32160 ft | 411 kts | 313° |
| 2026-05-08 03:53 | 42.11362 | 27.57583 | 32590 ft | 408 kts | 313° |
| 2026-05-08 03:54 | 42.13342 | 27.54860 | 32951 ft | 406 kts | 313° |
| 2026-05-08 03:54 | 42.15316 | 27.52143 | 33323 ft | 404 kts | 313° |
| 2026-05-08 03:54 | 42.17273 | 27.49447 | 33748 ft | 401 kts | 313° |
| 2026-05-08 03:54 | 42.19219 | 27.46765 | 34152 ft | 398 kts | 313° |
| 2026-05-08 03:55 | 42.21155 | 27.44092 | 34427 ft | 398 kts | 313° |
| 2026-05-08 03:55 | 42.23096 | 27.41411 | 34606 ft | 400 kts | 313° |
| 2026-05-08 03:55 | 42.25040 | 27.38723 | 34813 ft | 400 kts | 313° |
| 2026-05-08 03:55 | 42.26984 | 27.36032 | 35065 ft | 400 kts | 313° |
| 2026-05-08 03:56 | 42.28903 | 27.33375 | 35305 ft | 400 kts | 313° |
| 2026-05-08 03:56 | 42.30841 | 27.30688 | 35525 ft | 400 kts | 313° |
| 2026-05-08 03:56 | 42.32786 | 27.27988 | 35736 ft | 400 kts | 313° |
| 2026-05-08 03:56 | 42.34726 | 27.25293 | 35970 ft | 400 kts | 313° |
| 2026-05-08 03:57 | 42.36666 | 27.22595 | 36191 ft | 400 kts | 313° |
| 2026-05-08 03:57 | 42.38607 | 27.19895 | 36401 ft | 400 kts | 312° |
| 2026-05-08 03:57 | 42.40546 | 27.17193 | 36618 ft | 400 kts | 312° |
| 2026-05-08 03:57 | 42.42486 | 27.14489 | 36830 ft | 400 kts | 312° |
| 2026-05-08 03:58 | 42.44421 | 27.11788 | 37027 ft | 400 kts | 312° |
| 2026-05-08 03:58 | 42.46359 | 27.09080 | 37209 ft | 401 kts | 312° |
| 2026-05-08 03:58 | 42.48308 | 27.06356 | 37339 ft | 402 kts | 312° |
| 2026-05-08 03:58 | 42.50258 | 27.03625 | 37528 ft | 402 kts | 312° |
| 2026-05-08 03:59 | 42.52202 | 27.00902 | 37741 ft | 402 kts | 312° |
| 2026-05-08 03:59 | 42.54120 | 26.98213 | 37946 ft | 401 kts | 312° |
| 2026-05-08 03:59 | 42.56064 | 26.95483 | 38062 ft | 402 kts | 312° |
| 2026-05-08 04:00 | 42.59970 | 26.89993 | 38078 ft | 405 kts | 312° |
| 2026-05-08 04:00 | 42.63863 | 26.84510 | 38069 ft | 402 kts | 312° |
| 2026-05-08 04:01 | 42.67727 | 26.79058 | 38082 ft | 399 kts | 312° |
| 2026-05-08 04:01 | 42.71568 | 26.73628 | 38084 ft | 397 kts | 311° |
| 2026-05-08 04:02 | 42.75394 | 26.68206 | 38079 ft | 397 kts | 311° |
| 2026-05-08 04:02 | 42.79223 | 26.62772 | 38167 ft | 400 kts | 313° |
| 2026-05-08 04:03 | 42.83109 | 26.57310 | 38079 ft | 408 kts | 314° |
| 2026-05-08 04:03 | 42.89258 | 26.49234 | 38072 ft | 406 kts | 314° |
| 2026-05-08 04:04 | 42.93313 | 26.43923 | 38078 ft | 402 kts | 314° |
| 2026-05-08 04:04 | 42.97323 | 26.38631 | 38076 ft | 399 kts | 313° |
| 2026-05-08 04:05 | 43.01291 | 26.33365 | 38086 ft | 398 kts | 313° |
| 2026-05-08 04:05 | 43.05298 | 26.28030 | 38085 ft | 405 kts | 313° |
| 2026-05-08 04:06 | 43.09360 | 26.22613 | 38074 ft | 410 kts | 313° |
| 2026-05-08 04:06 | 43.13452 | 26.17147 | 38076 ft | 412 kts | 313° |
| 2026-05-08 04:07 | 43.17568 | 26.11638 | 38064 ft | 414 kts | 313° |
| 2026-05-08 04:07 | 43.21626 | 26.06199 | 38045 ft | 406 kts | 313° |
| 2026-05-08 04:08 | 43.25637 | 26.00811 | 38060 ft | 402 kts | 313° |
| 2026-05-08 04:08 | 43.29630 | 25.95435 | 38063 ft | 402 kts | 313° |
| 2026-05-08 04:09 | 43.33620 | 25.90051 | 38061 ft | 402 kts | 313° |
| 2026-05-08 04:09 | 43.37616 | 25.84649 | 38062 ft | 403 kts | 313° |
| 2026-05-08 04:10 | 43.41623 | 25.79222 | 38062 ft | 405 kts | 313° |
| 2026-05-08 04:10 | 43.45620 | 25.73798 | 38061 ft | 407 kts | 313° |
| 2026-05-08 04:11 | 43.49655 | 25.68312 | 38065 ft | 409 kts | 312° |
| 2026-05-08 04:11 | 43.53706 | 25.62794 | 38054 ft | 410 kts | 312° |
| 2026-05-08 04:12 | 43.57771 | 25.57246 | 38054 ft | 412 kts | 312° |
| 2026-05-08 04:12 | 43.61840 | 25.51680 | 38058 ft | 413 kts | 312° |
| 2026-05-08 04:13 | 43.65929 | 25.46077 | 38050 ft | 414 kts | 312° |
| 2026-05-08 04:13 | 43.70013 | 25.40467 | 38053 ft | 414 kts | 312° |
| 2026-05-08 04:14 | 43.74101 | 25.34842 | 38054 ft | 415 kts | 312° |
| 2026-05-08 04:14 | 43.78189 | 25.29205 | 38051 ft | 415 kts | 312° |
| 2026-05-08 04:15 | 43.82247 | 25.23599 | 38052 ft | 414 kts | 312° |
| 2026-05-08 04:15 | 43.86327 | 25.17949 | 38054 ft | 414 kts | 312° |
| 2026-05-08 04:16 | 43.90402 | 25.12296 | 38056 ft | 414 kts | 312° |
| 2026-05-08 04:16 | 43.94475 | 25.06634 | 38051 ft | 414 kts | 312° |
| 2026-05-08 04:17 | 43.98546 | 25.00962 | 38052 ft | 414 kts | 312° |
| 2026-05-08 04:17 | 44.02613 | 24.95284 | 38049 ft | 414 kts | 312° |
| 2026-05-08 04:18 | 44.06675 | 24.89603 | 38051 ft | 414 kts | 311° |
| 2026-05-08 04:18 | 44.10735 | 24.83912 | 38048 ft | 414 kts | 311° |
| 2026-05-08 04:19 | 44.14765 | 24.78250 | 38052 ft | 414 kts | 311° |
| 2026-05-08 04:19 | 44.18821 | 24.72540 | 38053 ft | 415 kts | 311° |
| 2026-05-08 04:20 | 44.22880 | 24.66816 | 38051 ft | 415 kts | 311° |
| 2026-05-08 04:20 | 44.26939 | 24.61078 | 38043 ft | 415 kts | 311° |
| 2026-05-08 04:21 | 44.31000 | 24.55327 | 38052 ft | 416 kts | 311° |
| 2026-05-08 04:21 | 44.35055 | 24.49571 | 38052 ft | 416 kts | 311° |
| 2026-05-08 04:22 | 44.39115 | 24.43796 | 38055 ft | 416 kts | 311° |
| 2026-05-08 04:22 | 44.43176 | 24.38007 | 38053 ft | 417 kts | 311° |
| 2026-05-08 04:23 | 44.47233 | 24.32213 | 38052 ft | 417 kts | 311° |
| 2026-05-08 04:23 | 44.51287 | 24.26410 | 38070 ft | 417 kts | 311° |
| 2026-05-08 04:24 | 44.55319 | 24.20627 | 38058 ft | 417 kts | 311° |
| 2026-05-08 04:24 | 44.59376 | 24.14795 | 38058 ft | 417 kts | 311° |
| 2026-05-08 04:25 | 44.63429 | 24.08956 | 38057 ft | 417 kts | 311° |
| 2026-05-08 04:25 | 44.67481 | 24.03106 | 38058 ft | 418 kts | 311° |
| 2026-05-08 04:26 | 44.71532 | 23.97246 | 38058 ft | 418 kts | 311° |
| 2026-05-08 04:26 | 44.75581 | 23.91376 | 38066 ft | 418 kts | 311° |
| 2026-05-08 04:27 | 44.79608 | 23.85525 | 38063 ft | 419 kts | 311° |
| 2026-05-08 04:27 | 44.83660 | 23.79625 | 38057 ft | 419 kts | 311° |
| 2026-05-08 04:28 | 44.87709 | 23.73717 | 38066 ft | 419 kts | 311° |
| 2026-05-08 04:28 | 44.91759 | 23.67795 | 38068 ft | 419 kts | 311° |
| 2026-05-08 04:29 | 44.95804 | 23.61868 | 38064 ft | 419 kts | 311° |
| 2026-05-08 04:29 | 44.99854 | 23.55919 | 38070 ft | 420 kts | 311° |
| 2026-05-08 04:30 | 45.03877 | 23.49998 | 38072 ft | 420 kts | 311° |
| 2026-05-08 04:30 | 45.07927 | 23.44023 | 38078 ft | 420 kts | 311° |
| 2026-05-08 04:31 | 45.11289 | 23.39055 | 38073 ft | 420 kts | 310° |
| 2026-05-08 04:31 | 45.15991 | 23.32089 | 38081 ft | 421 kts | 311° |
| 2026-05-08 04:32 | 45.19374 | 23.27068 | 38079 ft | 421 kts | 310° |
| 2026-05-08 04:32 | 45.23427 | 23.21038 | 38080 ft | 421 kts | 310° |
| 2026-05-08 04:33 | 45.27446 | 23.15048 | 38084 ft | 422 kts | 310° |
| 2026-05-08 04:33 | 45.31498 | 23.08993 | 38084 ft | 423 kts | 310° |
| 2026-05-08 04:34 | 45.35548 | 23.02928 | 38090 ft | 423 kts | 310° |
| 2026-05-08 04:34 | 45.39607 | 22.96836 | 38071 ft | 424 kts | 310° |
| 2026-05-08 04:35 | 45.43660 | 22.90741 | 38083 ft | 423 kts | 310° |
| 2026-05-08 04:35 | 45.47704 | 22.84646 | 38073 ft | 422 kts | 310° |
| 2026-05-08 04:36 | 45.51728 | 22.78565 | 38072 ft | 421 kts | 310° |
| 2026-05-08 04:36 | 45.55721 | 22.72520 | 38076 ft | 421 kts | 310° |
| 2026-05-08 04:37 | 45.59727 | 22.66440 | 38073 ft | 421 kts | 310° |
| 2026-05-08 04:37 | 45.63741 | 22.60334 | 38061 ft | 421 kts | 310° |
| 2026-05-08 04:38 | 45.67745 | 22.54231 | 38065 ft | 421 kts | 310° |
| 2026-05-08 04:38 | 45.71747 | 22.48116 | 38069 ft | 421 kts | 310° |
| 2026-05-08 04:39 | 45.75754 | 22.41980 | 38063 ft | 422 kts | 310° |
| 2026-05-08 04:39 | 45.79767 | 22.35821 | 38059 ft | 423 kts | 310° |
| 2026-05-08 04:40 | 45.83785 | 22.29640 | 38058 ft | 424 kts | 310° |
| 2026-05-08 04:40 | 45.87775 | 22.23490 | 38063 ft | 424 kts | 310° |
| 2026-05-08 04:41 | 45.91793 | 22.17281 | 38057 ft | 425 kts | 310° |
| 2026-05-08 04:41 | 45.95816 | 22.11050 | 38058 ft | 425 kts | 310° |
| 2026-05-08 04:42 | 45.99841 | 22.04802 | 38046 ft | 426 kts | 310° |
| 2026-05-08 04:42 | 46.03860 | 21.98548 | 38054 ft | 426 kts | 310° |
| 2026-05-08 04:43 | 46.07881 | 21.92278 | 38061 ft | 426 kts | 309° |
| 2026-05-08 04:43 | 46.11898 | 21.85999 | 38066 ft | 426 kts | 309° |
| 2026-05-08 04:44 | 46.15911 | 21.79711 | 38057 ft | 426 kts | 309° |
| 2026-05-08 04:44 | 46.19873 | 21.73489 | 38054 ft | 426 kts | 309° |
| 2026-05-08 04:45 | 46.23899 | 21.67154 | 38069 ft | 425 kts | 309° |
| 2026-05-08 04:45 | 46.27896 | 21.60846 | 38044 ft | 426 kts | 309° |
| 2026-05-08 04:46 | 46.31891 | 21.54529 | 38052 ft | 425 kts | 309° |
| 2026-05-08 04:46 | 46.35885 | 21.48198 | 38056 ft | 425 kts | 309° |
| 2026-05-08 04:47 | 46.39873 | 21.41862 | 38055 ft | 425 kts | 309° |
| 2026-05-08 04:47 | 46.43831 | 21.35557 | 38058 ft | 425 kts | 309° |
| 2026-05-08 04:48 | 46.47810 | 21.29207 | 38056 ft | 425 kts | 309° |
| 2026-05-08 04:48 | 46.49803 | 21.26023 | 37777 ft | 430 kts | 309° |
| 2026-05-08 04:48 | 46.51834 | 21.22848 | 37432 ft | 428 kts | 309° |
| 2026-05-08 04:49 | 46.53871 | 21.19708 | 36820 ft | 426 kts | 309° |
| 2026-05-08 04:49 | 46.55896 | 21.16604 | 36325 ft | 421 kts | 309° |
| 2026-05-08 04:49 | 46.57904 | 21.13522 | 35845 ft | 419 kts | 309° |
| 2026-05-08 04:49 | 46.59908 | 21.10434 | 35378 ft | 420 kts | 309° |
| 2026-05-08 04:50 | 46.61920 | 21.07322 | 34927 ft | 426 kts | 309° |
| 2026-05-08 04:50 | 46.63974 | 21.04130 | 34469 ft | 439 kts | 308° |
| 2026-05-08 04:50 | 46.66073 | 21.00866 | 33991 ft | 441 kts | 308° |
| 2026-05-08 04:50 | 46.68156 | 20.97631 | 33436 ft | 435 kts | 308° |
| 2026-05-08 04:51 | 46.70217 | 20.94428 | 32893 ft | 430 kts | 308° |
| 2026-05-08 04:51 | 46.72251 | 20.91264 | 32366 ft | 425 kts | 308° |
| 2026-05-08 04:51 | 46.74234 | 20.88172 | 31860 ft | 422 kts | 308° |
| 2026-05-08 04:51 | 46.76231 | 20.85051 | 31352 ft | 420 kts | 308° |
| 2026-05-08 04:52 | 46.78217 | 20.81942 | 30855 ft | 418 kts | 308° |
| 2026-05-08 04:52 | 46.80195 | 20.78843 | 30369 ft | 417 kts | 308° |
| 2026-05-08 04:52 | 46.82166 | 20.75749 | 29852 ft | 416 kts | 308° |
| 2026-05-08 04:52 | 46.84136 | 20.72656 | 29295 ft | 415 kts | 308° |
| 2026-05-08 04:53 | 46.86101 | 20.69566 | 28751 ft | 414 kts | 308° |
| 2026-05-08 04:53 | 46.88060 | 20.66482 | 28215 ft | 413 kts | 308° |
| 2026-05-08 04:53 | 46.90011 | 20.63408 | 27718 ft | 411 kts | 308° |
| 2026-05-08 04:53 | 46.91925 | 20.60395 | 27741 ft | 398 kts | 308° |
| 2026-05-08 04:54 | 46.93818 | 20.57409 | 27593 ft | 405 kts | 308° |
| 2026-05-08 04:54 | 46.95751 | 20.54348 | 27241 ft | 411 kts | 308° |
| 2026-05-08 04:54 | 46.97695 | 20.51269 | 26658 ft | 411 kts | 309° |
| 2026-05-08 04:54 | 46.99633 | 20.48200 | 26106 ft | 410 kts | 309° |
| 2026-05-08 04:55 | 47.01566 | 20.45135 | 25576 ft | 407 kts | 309° |
| 2026-05-08 04:55 | 47.03482 | 20.42093 | 25049 ft | 405 kts | 309° |
| 2026-05-08 04:55 | 47.05361 | 20.39105 | 24537 ft | 403 kts | 309° |
| 2026-05-08 04:55 | 47.07260 | 20.36082 | 24027 ft | 401 kts | 309° |
| 2026-05-08 04:56 | 47.09144 | 20.33078 | 23507 ft | 399 kts | 309° |
| 2026-05-08 04:56 | 47.11028 | 20.30071 | 22918 ft | 398 kts | 309° |
| 2026-05-08 04:56 | 47.12895 | 20.27089 | 22338 ft | 395 kts | 309° |
| 2026-05-08 04:56 | 47.14750 | 20.24123 | 21797 ft | 393 kts | 309° |
| 2026-05-08 04:57 | 47.16598 | 20.21182 | 21258 ft | 391 kts | 310° |
| 2026-05-08 04:57 | 47.18453 | 20.18265 | 20733 ft | 389 kts | 310° |
| 2026-05-08 04:57 | 47.20298 | 20.15374 | 20210 ft | 387 kts | 310° |
| 2026-05-08 04:57 | 47.22139 | 20.12487 | 19705 ft | 385 kts | 310° |
| 2026-05-08 04:58 | 47.23967 | 20.09613 | 19201 ft | 383 kts | 310° |
| 2026-05-08 04:58 | 47.25783 | 20.06752 | 18713 ft | 382 kts | 310° |
| 2026-05-08 04:58 | 47.27589 | 20.03900 | 18207 ft | 380 kts | 310° |
| 2026-05-08 04:58 | 47.29390 | 20.01056 | 17656 ft | 378 kts | 309° |
| 2026-05-08 04:59 | 47.31177 | 19.98229 | 17105 ft | 376 kts | 309° |
| 2026-05-08 04:59 | 47.32933 | 19.95448 | 16573 ft | 374 kts | 309° |
| 2026-05-08 04:59 | 47.34706 | 19.92638 | 16040 ft | 372 kts | 309° |
| 2026-05-08 04:59 | 47.36464 | 19.89851 | 15522 ft | 370 kts | 309° |
| 2026-05-08 05:00 | 47.38052 | 19.86911 | 15049 ft | 361 kts | 295° |
| 2026-05-08 05:00 | 47.38840 | 19.83492 | 14679 ft | 348 kts | 275° |
| 2026-05-08 05:00 | 47.38880 | 19.79983 | 14298 ft | 337 kts | 258° |
| 2026-05-08 05:00 | 47.38345 | 19.76689 | 13926 ft | 324 kts | 251° |
| 2026-05-08 05:01 | 47.37705 | 19.73558 | 13498 ft | 314 kts | 251° |
| 2026-05-08 05:01 | 47.37086 | 19.70523 | 13073 ft | 305 kts | 251° |
| 2026-05-08 05:01 | 47.36491 | 19.67532 | 12661 ft | 302 kts | 251° |
| 2026-05-08 05:01 | 47.35910 | 19.64569 | 12268 ft | 301 kts | 252° |
| 2026-05-08 05:02 | 47.35559 | 19.61569 | 11851 ft | 305 kts | 269° |
| 2026-05-08 05:02 | 47.35989 | 19.58487 | 11537 ft | 309 kts | 288° |
| 2026-05-08 05:02 | 47.37095 | 19.55791 | 11258 ft | 309 kts | 306° |
| 2026-05-08 05:02 | 47.38517 | 19.53456 | 10986 ft | 301 kts | 308° |
| 2026-05-08 05:03 | 47.39932 | 19.51234 | 10709 ft | 293 kts | 308° |
| 2026-05-08 05:03 | 47.41311 | 19.49073 | 10444 ft | 285 kts | 308° |
| 2026-05-08 05:03 | 47.42645 | 19.46969 | 10229 ft | 278 kts | 308° |
| 2026-05-08 05:03 | 47.43956 | 19.44881 | 9998 ft | 277 kts | 307° |
| 2026-05-08 05:04 | 47.45259 | 19.42795 | 9753 ft | 275 kts | 307° |
| 2026-05-08 05:04 | 47.46550 | 19.40720 | 9499 ft | 274 kts | 307° |
| 2026-05-08 05:04 | 47.47821 | 19.38675 | 9254 ft | 272 kts | 308° |
| 2026-05-08 05:04 | 47.49113 | 19.36594 | 9011 ft | 270 kts | 308° |
| 2026-05-08 05:05 | 47.50377 | 19.34554 | 8765 ft | 268 kts | 308° |
| 2026-05-08 05:05 | 47.51615 | 19.32555 | 8524 ft | 267 kts | 308° |
| 2026-05-08 05:05 | 47.52871 | 19.30523 | 8268 ft | 267 kts | 308° |
| 2026-05-08 05:05 | 47.54126 | 19.28492 | 8025 ft | 267 kts | 308° |
| 2026-05-08 05:06 | 47.55378 | 19.26465 | 7772 ft | 267 kts | 308° |
| 2026-05-08 05:06 | 47.56628 | 19.24439 | 7524 ft | 266 kts | 308° |
| 2026-05-08 05:06 | 47.57874 | 19.22418 | 7288 ft | 264 kts | 308° |
| 2026-05-08 05:06 | 47.59105 | 19.20423 | 7055 ft | 261 kts | 308° |
| 2026-05-08 05:07 | 47.60327 | 19.18438 | 6825 ft | 259 kts | 308° |
| 2026-05-08 05:07 | 47.61532 | 19.16480 | 6586 ft | 256 kts | 308° |
| 2026-05-08 05:07 | 47.62727 | 19.14535 | 6355 ft | 254 kts | 308° |
| 2026-05-08 05:07 | 47.63912 | 19.12606 | 6094 ft | 251 kts | 308° |
| 2026-05-08 05:08 | 47.65071 | 19.10721 | 5826 ft | 243 kts | 308° |
| 2026-05-08 05:08 | 47.66011 | 19.08725 | 5537 ft | 230 kts | 285° |
| 2026-05-08 05:08 | 47.66164 | 19.06492 | 5299 ft | 217 kts | 259° |
| 2026-05-08 05:08 | 47.65692 | 19.04423 | 5041 ft | 209 kts | 239° |
| 2026-05-08 05:09 | 47.64784 | 19.02787 | 4832 ft | 203 kts | 225° |
| 2026-05-08 05:09 | 47.63760 | 19.01392 | 4588 ft | 196 kts | 224° |
| 2026-05-08 05:09 | 47.62768 | 19.00075 | 4459 ft | 189 kts | 224° |
| 2026-05-08 05:09 | 47.61767 | 18.98837 | 4348 ft | 187 kts | 212° |
| 2026-05-08 05:10 | 47.60520 | 18.98642 | 4296 ft | 187 kts | 164° |
| 2026-05-08 05:10 | 47.58341 | 19.00938 | 4321 ft | 199 kts | 144° |
| 2026-05-08 05:10 | 47.57261 | 19.02287 | 4108 ft | 207 kts | 142° |
| 2026-05-08 05:11 | 47.56224 | 19.03764 | 3849 ft | 207 kts | 138° |
| 2026-05-08 05:11 | 47.55244 | 19.05309 | 3573 ft | 203 kts | 136° |
| 2026-05-08 05:11 | 47.54304 | 19.06828 | 3309 ft | 197 kts | 136° |
| 2026-05-08 05:11 | 47.53384 | 19.08315 | 3047 ft | 195 kts | 136° |
| 2026-05-08 05:12 | 47.52466 | 19.09796 | 2792 ft | 197 kts | 136° |
| 2026-05-08 05:12 | 47.51539 | 19.11294 | 2525 ft | 195 kts | 137° |
| 2026-05-08 05:12 | 47.50645 | 19.12739 | 2272 ft | 184 kts | 136° |
| 2026-05-08 05:12 | 47.49830 | 19.14057 | 2045 ft | 168 kts | 136° |
| 2026-05-08 05:13 | 47.49077 | 19.15274 | 1813 ft | 155 kts | 136° |
| 2026-05-08 05:13 | 47.48343 | 19.16457 | 1593 ft | 156 kts | 135° |
| 2026-05-08 05:13 | 47.47618 | 19.17629 | 1333 ft | 152 kts | 135° |
| 2026-05-08 05:13 | 47.46913 | 19.18771 | 1117 ft | 151 kts | 133° |
| 2026-05-08 05:14 | 47.46209 | 19.19911 | 897 ft | 149 kts | 134° |
| 2026-05-08 05:14 | 47.45519 | 19.21023 | 697 ft | 147 kts | 133° |
| 2026-05-08 05:14 | 47.44829 | 19.22144 | 510 ft | 147 kts | 132° |
| 2026-05-08 05:14 | 47.44173 | 19.23211 | 453 ft | 130 kts | 133° |
| 2026-05-08 05:15 | 47.43670 | 19.24019 | 452 ft | 88 kts | 133° |
| 2026-05-08 05:15 | 47.43356 | 19.24527 | 452 ft | 45 kts | 132° |
| 2026-05-08 05:15 | 47.43188 | 19.24797 | 455 ft | 33 kts | 133° |
| 2026-05-08 05:15 | 47.43097 | 19.24998 | 456 ft | 18 kts | 92° |
| 2026-05-08 05:16 | 47.43159 | 19.25141 | 455 ft | 16 kts | 42° |
| 2026-05-08 05:16 | 47.43242 | 19.25251 | 456 ft | 16 kts | 42° |
| 2026-05-08 05:16 | 47.43322 | 19.25358 | 456 ft | 15 kts | 43° |
| 2026-05-08 05:16 | 47.43332 | 19.25449 | 456 ft | 9 kts | 121° |
| 2026-05-08 05:17 | 47.43292 | 19.25514 | 456 ft | 8 kts | 133° |
| 2026-05-08 05:17 | 47.43253 | 19.25577 | 456 ft | 8 kts | 132° |
| 2026-05-08 05:17 | 47.43215 | 19.25639 | 456 ft | 8 kts | 132° |
| 2026-05-08 05:17 | 47.43174 | 19.25705 | 456 ft | 11 kts | 133° |
| 2026-05-08 05:18 | 47.43119 | 19.25792 | 456 ft | 11 kts | 132° |
| 2026-05-08 05:18 | 47.43108 | 19.25879 | 456 ft | 10 kts | 54° |
| 2026-05-08 05:18 | 47.43139 | 19.25921 | 456 ft | 0 kts | 43° |